Time;durP1;ratioP1;P1;durP2;ratioP2;P2;SDS_P1;SDS_P2;PMS_P1;PMS_P2;Temp;Humidity;BMP_temperature;BMP_pressure;BME280_temperature;BME280_humidity;BME280_pressure;Samples;Min_cycle;Max_cycle;Signal;HPM_P1;HPM_P2
2022/11/17 00:01:22;;;;;;;;;;;10.30;99.90;;;;;;5050553;28;19978;-66
2022/11/17 00:03:50;;;;;;;;;;;10.20;99.90;;;;;;5051132;28;19968;-66
2022/11/17 00:06:19;;;;;;;;;;;10.30;99.90;;;;;;5051368;28;20361;-66
2022/11/17 00:08:49;;;;;;;;;;;10.30;99.90;;;;;;5058131;28;20372;-67
2022/11/17 00:11:16;;;;;;;;;;;10.30;99.90;;;;;;5052290;28;19998;-66
2022/11/17 00:16:30;;;;;;;;;;;10.40;99.90;;;;;;5054766;28;19972;-67
2022/11/17 00:21:43;;;;;;;;;;;10.30;99.90;;;;;;5053860;28;19968;-64
2022/11/17 00:24:15;;;;;;;;;;;10.30;99.90;;;;;;5054441;28;19983;-64
2022/11/17 00:29:24;;;;;;;;;;;10.40;99.90;;;;;;5053883;28;20530;-64
2022/11/17 00:34:37;;;;;;;;;;;10.20;99.90;;;;;;5053859;28;19974;-64
2022/11/17 00:37:05;;;;;;;;;;;10.30;99.90;;;;;;5053918;28;20066;-64
2022/11/17 00:39:34;;;;;;;;;;;10.20;99.90;;;;;;5050871;28;19975;-63
2022/11/17 00:42:02;;;;;;;;;;;10.30;99.90;;;;;;5034197;28;19969;-65
2022/11/17 00:44:30;;;;;;;;;;;10.30;99.90;;;;;;5045825;28;19968;-64
2022/11/17 00:46:58;;;;;;;;;;;10.30;99.90;;;;;;5054207;28;20436;-64
2022/11/17 00:49:25;;;;;;;;;;;10.40;99.90;;;;;;5053986;28;19968;-65
2022/11/17 00:51:54;;;;;;;;;;;10.30;99.90;;;;;;5053366;28;20063;-65
2022/11/17 00:54:22;;;;;;;;;;;10.20;99.90;;;;;;5053640;28;20365;-64
2022/11/17 00:56:51;;;;;;;;;;;10.10;99.90;;;;;;5053862;28;20444;-64
2022/11/17 00:59:19;;;;;;;;;;;10.20;99.90;;;;;;5053779;28;20011;-65
2022/11/17 01:01:46;;;;;;;;;;;10.30;99.90;;;;;;5052934;28;19974;-64
2022/11/17 01:04:15;;;;;;;;;;;10.40;99.90;;;;;;5053608;28;19972;-65
2022/11/17 01:06:43;;;;;;;;;;;10.30;99.90;;;;;;5045310;28;20134;-64
2022/11/17 01:09:12;;;;;;;;;;;10.30;99.90;;;;;;5053670;28;19973;-65
2022/11/17 01:11:40;;;;;;;;;;;10.20;99.90;;;;;;5048434;28;19972;-65
2022/11/17 01:14:11;;;;;;;;;;;10.00;99.90;;;;;;5053430;28;19976;-65
2022/11/17 01:16:39;;;;;;;;;;;10.10;99.90;;;;;;5053677;28;20330;-64
2022/11/17 01:19:07;;;;;;;;;;;10.00;99.90;;;;;;5052438;28;19995;-65
2022/11/17 01:21:35;;;;;;;;;;;10.00;99.90;;;;;;5052608;28;20330;-65
2022/11/17 01:24:03;;;;;;;;;;;9.90;99.90;;;;;;5053130;28;20471;-65
2022/11/17 01:26:31;;;;;;;;;;;9.90;99.90;;;;;;5053464;28;19968;-66
2022/11/17 01:28:59;;;;;;;;;;;9.90;99.90;;;;;;5053159;28;19968;-65
2022/11/17 01:31:29;;;;;;;;;;;9.80;99.90;;;;;;5052413;28;19976;-66
2022/11/17 01:33:57;;;;;;;;;;;9.90;99.90;;;;;;5053024;28;19975;-65
2022/11/17 01:36:26;;;;;;;;;;;9.80;99.90;;;;;;5052659;28;19974;-65
2022/11/17 01:38:54;;;;;;;;;;;9.80;99.90;;;;;;5056505;28;19964;-65
2022/11/17 01:41:23;;;;;;;;;;;9.80;99.90;;;;;;5032478;28;20352;-65
2022/11/17 01:43:51;;;;;;;;;;;9.80;99.90;;;;;;5033276;28;19984;-65
2022/11/17 01:46:25;;;;;;;;;;;9.90;99.90;;;;;;5033054;28;19986;-65
2022/11/17 01:48:58;;;;;;;;;;;9.90;99.90;;;;;;5033231;28;20360;-64
2022/11/17 01:51:26;;;;;;;;;;;9.90;99.90;;;;;;5035345;28;20344;-64
2022/11/17 01:53:54;;;;;;;;;;;9.80;99.90;;;;;;5052686;28;20025;-64
2022/11/17 01:56:24;;;;;;;;;;;9.80;99.90;;;;;;5052560;28;19968;-65
2022/11/17 01:58:54;;;;;;;;;;;9.90;99.90;;;;;;5052651;28;19969;-63
2022/11/17 02:01:22;;;;;;;;;;;9.90;99.90;;;;;;5052009;28;19968;-64
2022/11/17 02:03:50;;;;;;;;;;;9.80;99.90;;;;;;5052627;28;19979;-65
2022/11/17 02:06:23;;;;;;;;;;;9.90;99.90;;;;;;5052217;28;19972;-65
2022/11/17 02:08:52;;;;;;;;;;;9.70;99.90;;;;;;5059319;28;19964;-65
2022/11/17 02:11:21;;;;;;;;;;;9.70;99.90;;;;;;5051815;28;19975;-65
2022/11/17 02:13:49;;;;;;;;;;;9.90;99.90;;;;;;5052248;28;19969;-65
2022/11/17 02:16:17;;;;;;;;;;;9.90;99.90;;;;;;5052205;28;20441;-65
2022/11/17 02:18:46;;;;;;;;;;;10.00;99.90;;;;;;5052720;28;19994;-65
2022/11/17 02:21:28;;;;;;;;;;;10.00;99.90;;;;;;5051744;28;19968;-65
2022/11/17 02:24:07;;;;;;;;;;;10.10;99.90;;;;;;5052138;28;19978;-66
2022/11/17 02:27:02;;;;;;;;;;;10.20;99.90;;;;;;5052020;28;20340;-65
2022/11/17 02:29:35;;;;;;;;;;;10.40;99.90;;;;;;5051871;28;19978;-65
2022/11/17 02:32:05;;;;;;;;;;;10.20;99.90;;;;;;5052104;28;19979;-65
2022/11/17 02:34:38;;;;;;;;;;;10.00;99.90;;;;;;5051649;28;19969;-65
2022/11/17 02:37:09;;;;;;;;;;;9.80;99.90;;;;;;5051803;28;19997;-65
2022/11/17 02:39:40;;;;;;;;;;;9.80;99.90;;;;;;5043420;28;20350;-66
2022/11/17 02:42:09;;;;;;;;;;;9.90;99.90;;;;;;5051954;28;20413;-66
2022/11/17 02:44:41;;;;;;;;;;;9.90;99.90;;;;;;5031735;28;19973;-65
2022/11/17 02:47:10;;;;;;;;;;;9.80;99.90;;;;;;5040042;28;20420;-65
2022/11/17 02:49:39;;;;;;;;;;;9.70;99.90;;;;;;5051473;28;20062;-67
2022/11/17 02:52:08;;;;;;;;;;;9.80;99.90;;;;;;5050364;28;19964;-65
2022/11/17 02:54:35;;;;;;;;;;;9.80;99.90;;;;;;5048586;28;19964;-65
2022/11/17 02:57:03;;;;;;;;;;;9.80;99.90;;;;;;5052629;28;20066;-65
2022/11/17 02:59:33;;;;;;;;;;;9.80;99.90;;;;;;5040410;28;19968;-65
2022/11/17 03:02:22;;;;;;;;;;;9.60;99.90;;;;;;5033490;28;19971;-65
2022/11/17 03:04:59;;;;;;;;;;;9.60;99.90;;;;;;5043139;28;19964;-65
2022/11/17 03:07:36;;;;;;;;;;;9.60;99.90;;;;;;5050497;28;20058;-66
2022/11/17 03:10:11;;;;;;;;;;;9.60;99.90;;;;;;5041801;28;19964;-65
2022/11/17 03:12:42;;;;;;;;;;;9.50;99.90;;;;;;5041472;28;19972;-65
2022/11/17 03:15:13;;;;;;;;;;;9.50;99.90;;;;;;5031067;28;20344;-65
2022/11/17 03:17:46;;;;;;;;;;;9.50;99.90;;;;;;5045272;28;19979;-65
2022/11/17 03:20:19;;;;;;;;;;;9.40;99.90;;;;;;5037881;28;19972;-65
2022/11/17 03:22:51;;;;;;;;;;;9.40;99.90;;;;;;5050473;28;19970;-64
2022/11/17 03:25:20;;;;;;;;;;;9.50;99.90;;;;;;5051379;28;19972;-65
2022/11/17 03:27:50;;;;;;;;;;;9.60;99.90;;;;;;5051757;28;19994;-65
2022/11/17 03:30:19;;;;;;;;;;;9.60;99.90;;;;;;5050913;28;20356;-65
2022/11/17 03:32:49;;;;;;;;;;;9.60;99.90;;;;;;5051566;28;20487;-64
2022/11/17 03:35:20;;;;;;;;;;;9.50;99.90;;;;;;5050295;28;19968;-67
2022/11/17 03:37:51;;;;;;;;;;;9.70;99.90;;;;;;5050148;28;19968;-65
2022/11/17 03:40:21;;;;;;;;;;;9.80;99.90;;;;;;5052667;28;19976;-64
2022/11/17 03:42:52;;;;;;;;;;;9.90;99.90;;;;;;5052826;28;20046;-64
2022/11/17 03:45:22;;;;;;;;;;;9.80;99.90;;;;;;5053828;28;20037;-65
2022/11/17 03:47:51;;;;;;;;;;;9.60;99.90;;;;;;5053960;28;19964;-65
2022/11/17 03:50:22;;;;;;;;;;;9.60;99.90;;;;;;5049251;28;19968;-64
2022/11/17 03:52:50;;;;;;;;;;;9.40;99.90;;;;;;5053402;28;20332;-64
2022/11/17 03:55:17;;;;;;;;;;;9.40;99.90;;;;;;5054308;28;19968;-65
2022/11/17 03:57:49;;;;;;;;;;;9.40;99.90;;;;;;5051168;28;19971;-64
2022/11/17 04:00:18;;;;;;;;;;;9.40;99.90;;;;;;5052781;28;19964;-65
2022/11/17 04:02:47;;;;;;;;;;;9.40;99.90;;;;;;5054893;28;19975;-65
2022/11/17 04:05:15;;;;;;;;;;;9.30;99.90;;;;;;5054297;28;20055;-65
2022/11/17 04:07:45;;;;;;;;;;;9.40;99.90;;;;;;5054457;28;19971;-66
2022/11/17 04:10:14;;;;;;;;;;;9.40;99.90;;;;;;5070790;28;20006;-65
2022/11/17 04:18:12;;;;;;;;;;;9.60;99.90;;;;;;5058626;28;19971;-65
2022/11/17 04:20:40;;;;;;;;;;;9.70;99.90;;;;;;5053834;28;19972;-65
2022/11/17 04:23:12;;;;;;;;;;;9.60;99.90;;;;;;5054326;28;20501;-65
2022/11/17 04:28:39;;;;;;;;;;;9.50;99.90;;;;;;5054609;28;19968;-66
2022/11/17 04:31:08;;;;;;;;;;;9.60;99.90;;;;;;5053858;28;19968;-65
2022/11/17 04:33:36;;;;;;;;;;;9.70;99.90;;;;;;5053971;28;19968;-64
2022/11/17 04:36:05;;;;;;;;;;;9.70;99.90;;;;;;5053872;28;20370;-65
2022/11/17 04:38:34;;;;;;;;;;;9.70;99.90;;;;;;5055764;28;19964;-66
2022/11/17 04:43:49;;;;;;;;;;;9.80;99.90;;;;;;5054136;28;19968;-65
2022/11/17 04:46:17;;;;;;;;;;;10.10;99.90;;;;;;5053873;28;19972;-64
2022/11/17 04:48:44;;;;;;;;;;;10.10;99.90;;;;;;5054121;28;19967;-65
2022/11/17 04:51:12;;;;;;;;;;;10.20;99.90;;;;;;5053042;28;20443;-65
2022/11/17 04:53:41;;;;;;;;;;;10.30;99.90;;;;;;5053429;28;19976;-66
2022/11/17 04:56:10;;;;;;;;;;;10.30;99.90;;;;;;5053696;28;19975;-65
2022/11/17 04:58:37;;;;;;;;;;;10.40;99.90;;;;;;5053727;28;19975;-65
2022/11/17 05:01:16;;;;;;;;;;;10.60;99.90;;;;;;5053215;28;19994;-65
2022/11/17 05:03:44;;;;;;;;;;;10.60;99.90;;;;;;5053767;28;20070;-67
2022/11/17 05:06:14;;;;;;;;;;;10.70;99.90;;;;;;5053425;28;19972;-68
2022/11/17 05:08:43;;;;;;;;;;;10.80;99.90;;;;;;5057515;28;20431;-67
2022/11/17 05:13:57;;;;;;;;;;;10.90;99.90;;;;;;5033631;28;19968;-65
2022/11/17 05:19:12;;;;;;;;;;;11.10;99.90;;;;;;5053323;28;20447;-66
2022/11/17 05:21:40;;;;;;;;;;;10.90;99.90;;;;;;5052361;28;19968;-67
2022/11/17 05:24:08;;;;;;;;;;;10.90;99.90;;;;;;5053155;28;19968;-65
2022/11/17 05:26:37;;;;;;;;;;;11.00;99.90;;;;;;5052832;28;20419;-66
2022/11/17 05:29:05;;;;;;;;;;;11.00;99.90;;;;;;5049497;28;19979;-65
2022/11/17 05:31:33;;;;;;;;;;;11.00;99.90;;;;;;5039893;28;19979;-66
2022/11/17 05:34:01;;;;;;;;;;;11.00;99.90;;;;;;5041079;28;19982;-65
2022/11/17 05:36:29;;;;;;;;;;;10.90;99.90;;;;;;5039556;28;20567;-66
2022/11/17 05:38:57;;;;;;;;;;;11.00;99.90;;;;;;5040847;28;19979;-66
2022/11/17 05:41:27;;;;;;;;;;;11.10;99.90;;;;;;5034787;28;19979;-66
2022/11/17 05:43:55;;;;;;;;;;;11.10;99.90;;;;;;5040124;28;19973;-66
2022/11/17 05:46:24;;;;;;;;;;;11.10;99.90;;;;;;5038374;28;19998;-69
2022/11/17 05:48:52;;;;;;;;;;;11.20;99.90;;;;;;5038847;28;19972;-69
2022/11/17 05:51:21;;;;;;;;;;;11.30;99.90;;;;;;5036187;28;19976;-68
2022/11/17 05:53:49;;;;;;;;;;;11.30;99.90;;;;;;5039264;28;20352;-68
2022/11/17 05:56:31;;;;;;;;;;;11.40;99.90;;;;;;5037812;28;20506;-68
2022/11/17 05:59:01;;;;;;;;;;;11.40;99.90;;;;;;5040400;28;19967;-68
2022/11/17 06:01:29;;;;;;;;;;;11.50;99.90;;;;;;5036425;28;19973;-68
2022/11/17 06:04:00;;;;;;;;;;;11.60;99.90;;;;;;5038644;28;19973;-68
2022/11/17 06:06:28;;;;;;;;;;;11.50;99.90;;;;;;5037937;28;19976;-67
2022/11/17 06:08:56;;;;;;;;;;;11.50;99.90;;;;;;5037525;28;19974;-68
2022/11/17 06:11:24;;;;;;;;;;;11.60;99.90;;;;;;5035014;28;19972;-68
2022/11/17 06:13:53;;;;;;;;;;;11.60;99.90;;;;;;5038762;28;20353;-68
2022/11/17 06:16:22;;;;;;;;;;;11.50;99.90;;;;;;5036313;28;20372;-68
2022/11/17 06:18:53;;;;;;;;;;;11.50;99.90;;;;;;5039094;28;21116;-68
2022/11/17 06:21:21;;;;;;;;;;;11.50;99.90;;;;;;5036414;28;20875;-67
2022/11/17 06:23:49;;;;;;;;;;;11.30;99.90;;;;;;5040140;28;19978;-68
2022/11/17 06:26:17;;;;;;;;;;;11.40;99.90;;;;;;5038252;28;21123;-68
2022/11/17 06:28:47;;;;;;;;;;;11.30;99.90;;;;;;5039220;28;19975;-68
2022/11/17 06:31:16;;;;;;;;;;;11.40;99.90;;;;;;5034114;28;20843;-69
2022/11/17 06:33:44;;;;;;;;;;;11.30;99.90;;;;;;5037397;28;19964;-69
2022/11/17 06:36:12;;;;;;;;;;;11.30;99.90;;;;;;5037747;28;19968;-69
2022/11/17 06:38:40;;;;;;;;;;;11.20;99.90;;;;;;5036896;28;20396;-69
2022/11/17 06:41:08;;;;;;;;;;;11.10;99.90;;;;;;5035837;28;19972;-68
2022/11/17 06:43:38;;;;;;;;;;;11.00;99.90;;;;;;5038594;28;19964;-66
2022/11/17 06:46:06;;;;;;;;;;;10.80;99.90;;;;;;5036529;28;20536;-65
2022/11/17 06:48:35;;;;;;;;;;;10.70;99.90;;;;;;5037650;28;19978;-65
2022/11/17 06:51:04;;;;;;;;;;;10.60;99.90;;;;;;5035050;28;20604;-66
2022/11/17 06:53:33;;;;;;;;;;;10.50;99.90;;;;;;5034799;28;19972;-66
2022/11/17 06:56:03;;;;;;;;;;;10.50;99.90;;;;;;5038100;28;19972;-65
2022/11/17 06:58:31;;;;;;;;;;;10.40;99.90;;;;;;5038581;28;19972;-65
2022/11/17 07:01:06;;;;;;;;;;;10.40;99.90;;;;;;5036071;28;20603;-65
2022/11/17 07:03:36;;;;;;;;;;;10.30;99.90;;;;;;5036230;28;19972;-65
2022/11/17 07:06:05;;;;;;;;;;;10.20;99.90;;;;;;5036873;28;21032;-67
2022/11/17 07:08:34;;;;;;;;;;;10.20;99.90;;;;;;5036883;28;19972;-65
2022/11/17 07:11:02;;;;;;;;;;;10.20;99.90;;;;;;5032863;28;20515;-66
2022/11/17 07:13:32;;;;;;;;;;;10.20;99.90;;;;;;5036940;28;19972;-65
2022/11/17 07:16:03;;;;;;;;;;;10.20;99.90;;;;;;5037845;28;19971;-66
2022/11/17 07:18:31;;;;;;;;;;;10.10;99.90;;;;;;5042496;28;20027;-66
2022/11/17 07:21:04;;;;;;;;;;;10.20;99.90;;;;;;5037644;28;20007;-65
2022/11/17 07:23:33;;;;;;;;;;;10.20;99.90;;;;;;5040959;28;19978;-66
2022/11/17 07:26:00;;;;;;;;;;;10.20;99.90;;;;;;5039092;28;20515;-65
2022/11/17 07:28:29;;;;;;;;;;;10.20;99.90;;;;;;5053767;28;19975;-65
2022/11/17 07:30:56;;;;;;;;;;;10.20;99.90;;;;;;5040427;28;19990;-64
2022/11/17 07:33:24;;;;;;;;;;;10.30;99.90;;;;;;5035488;28;19991;-65
2022/11/17 07:35:52;;;;;;;;;;;10.30;99.90;;;;;;5035046;28;19976;-64
2022/11/17 07:38:21;;;;;;;;;;;10.30;99.90;;;;;;5049188;28;19972;-65
2022/11/17 07:40:48;;;;;;;;;;;10.30;99.90;;;;;;5047878;28;19975;-65
2022/11/17 07:43:16;;;;;;;;;;;10.30;99.90;;;;;;5035330;28;19979;-64
2022/11/17 07:45:44;;;;;;;;;;;10.40;99.90;;;;;;5035043;28;19968;-65
2022/11/17 07:48:12;;;;;;;;;;;10.40;99.90;;;;;;5035179;28;19979;-64
2022/11/17 07:50:40;;;;;;;;;;;10.50;99.90;;;;;;5034426;28;19968;-64
2022/11/17 07:53:08;;;;;;;;;;;10.50;99.90;;;;;;5034852;28;20448;-64
2022/11/17 07:55:37;;;;;;;;;;;10.60;99.90;;;;;;5035177;28;19975;-64
2022/11/17 07:58:04;;;;;;;;;;;10.70;99.90;;;;;;5035100;28;19969;-64
2022/11/17 08:00:33;;;;;;;;;;;10.90;99.90;;;;;;5034438;28;20429;-65
2022/11/17 08:03:02;;;;;;;;;;;11.10;99.90;;;;;;5034792;28;20007;-64
2022/11/17 08:05:31;;;;;;;;;;;11.10;99.90;;;;;;5034687;28;19995;-64
2022/11/17 08:07:59;;;;;;;;;;;11.10;99.90;;;;;;5044569;28;19964;-65
2022/11/17 08:10:30;;;;;;;;;;;11.10;99.90;;;;;;5052057;28;20008;-64
2022/11/17 08:12:59;;;;;;;;;;;11.10;99.90;;;;;;5034593;28;19975;-64
2022/11/17 08:15:28;;;;;;;;;;;11.00;99.90;;;;;;5034523;28;19976;-65
2022/11/17 08:17:56;;;;;;;;;;;10.90;99.90;;;;;;5034722;28;19977;-65
2022/11/17 08:20:24;;;;;;;;;;;10.90;99.90;;;;;;5034129;28;19979;-65
2022/11/17 08:22:52;;;;;;;;;;;10.80;99.90;;;;;;5034270;28;19977;-64
2022/11/17 08:25:21;;;;;;;;;;;10.80;99.90;;;;;;5034489;28;19969;-64
2022/11/17 08:27:50;;;;;;;;;;;10.80;99.90;;;;;;5033852;28;19976;-64
2022/11/17 08:30:20;;;;;;;;;;;10.80;99.90;;;;;;5033414;28;20067;-65
2022/11/17 08:32:49;;;;;;;;;;;10.80;99.90;;;;;;5034368;28;20150;-64
2022/11/17 08:35:16;;;;;;;;;;;10.90;99.90;;;;;;5034003;28;19975;-64
2022/11/17 08:37:44;;;;;;;;;;;10.90;99.90;;;;;;5042300;28;19990;-64
2022/11/17 08:40:13;;;;;;;;;;;10.90;99.90;;;;;;5053264;28;19975;-64
2022/11/17 08:42:40;;;;;;;;;;;10.90;99.90;;;;;;5033988;28;19975;-64
2022/11/17 08:45:09;;;;;;;;;;;10.90;99.90;;;;;;5034448;28;19980;-64
2022/11/17 08:47:38;;;;;;;;;;;10.90;99.90;;;;;;5034115;28;19969;-65
2022/11/17 08:50:07;;;;;;;;;;;11.00;99.90;;;;;;5033229;28;19968;-64
2022/11/17 08:52:34;;;;;;;;;;;11.00;99.90;;;;;;5033647;28;20059;-64
2022/11/17 08:55:04;;;;;;;;;;;11.00;99.90;;;;;;5033697;28;20466;-64
2022/11/17 08:57:32;;;;;;;;;;;11.00;99.90;;;;;;5034978;28;19972;-65
2022/11/17 09:00:00;;;;;;;;;;;11.00;99.90;;;;;;5033295;28;19972;-64
2022/11/17 09:02:28;;;;;;;;;;;11.00;99.90;;;;;;5033535;28;19980;-64
2022/11/17 09:04:57;;;;;;;;;;;11.00;99.90;;;;;;5033626;28;19975;-65
2022/11/17 09:07:25;;;;;;;;;;;11.00;99.90;;;;;;5039202;28;19978;-64
2022/11/17 09:10:00;;;;;;;;;;;11.00;99.90;;;;;;5054672;28;19984;-64
2022/11/17 09:12:27;;;;;;;;;;;11.10;99.90;;;;;;5033636;28;19972;-64
2022/11/17 09:14:55;;;;;;;;;;;11.10;99.90;;;;;;5033420;28;19975;-65
2022/11/17 09:17:23;;;;;;;;;;;11.10;99.90;;;;;;5033622;28;19988;-64
2022/11/17 09:19:51;;;;;;;;;;;11.20;99.90;;;;;;5032905;28;20074;-64
2022/11/17 09:22:20;;;;;;;;;;;11.20;99.90;;;;;;5033098;28;19972;-65
2022/11/17 09:24:47;;;;;;;;;;;11.20;99.90;;;;;;5033359;28;19968;-65
2022/11/17 09:27:15;;;;;;;;;;;11.20;99.90;;;;;;5033490;28;19969;-64
2022/11/17 09:29:43;;;;;;;;;;;11.20;99.90;;;;;;5032661;28;20063;-64
2022/11/17 09:32:12;;;;;;;;;;;11.50;99.90;;;;;;5032910;28;20059;-64
2022/11/17 09:34:39;;;;;;;;;;;11.70;99.90;;;;;;5032710;28;20008;-65
2022/11/17 09:37:07;;;;;;;;;;;12.00;99.90;;;;;;5036334;28;20376;-64
2022/11/17 09:39:36;;;;;;;;;;;12.30;99.90;;;;;;5056403;28;19965;-64
2022/11/17 09:42:04;;;;;;;;;;;12.30;99.90;;;;;;5032818;28;19975;-65
2022/11/17 09:44:38;;;;;;;;;;;12.10;99.90;;;;;;5033024;28;20284;-64
2022/11/17 09:47:10;;;;;;;;;;;12.00;99.90;;;;;;5033096;28;20022;-64
2022/11/17 09:49:41;;;;;;;;;;;12.00;99.90;;;;;;5032588;28;19973;-64
2022/11/17 09:52:13;;;;;;;;;;;12.30;99.90;;;;;;5033011;28;19975;-64
2022/11/17 09:54:45;;;;;;;;;;;12.40;99.90;;;;;;5032693;28;19979;-64
2022/11/17 09:57:18;;;;;;;;;;;12.50;99.90;;;;;;5032797;28;20430;-65
2022/11/17 09:59:49;;;;;;;;;;;12.60;99.90;;;;;;5031887;28;20414;-64
2022/11/17 10:02:16;;;;;;;;;;;12.70;99.90;;;;;;5032771;28;19976;-65
2022/11/17 10:04:44;;;;;;;;;;;12.80;99.90;;;;;;5032584;28;20038;-65
2022/11/17 10:07:12;;;;;;;;;;;12.90;99.90;;;;;;5036127;28;19973;-65
2022/11/17 10:09:41;;;;;;;;;;;12.90;99.90;;;;;;5055982;28;20002;-65
2022/11/17 10:12:15;;;;;;;;;;;13.00;99.90;;;;;;5032081;28;19969;-65
2022/11/17 10:14:43;;;;;;;;;;;13.30;99.90;;;;;;5032379;28;19968;-64
2022/11/17 10:17:12;;;;;;;;;;;13.60;99.90;;;;;;5032388;28;19968;-65
2022/11/17 10:19:40;;;;;;;;;;;13.40;99.90;;;;;;5031739;28;20360;-65
2022/11/17 10:22:16;;;;;;;;;;;13.20;99.90;;;;;;5032294;28;19972;-64
2022/11/17 10:24:49;;;;;;;;;;;13.00;99.90;;;;;;5032134;28;20102;-65
2022/11/17 10:27:22;;;;;;;;;;;13.00;99.90;;;;;;5030960;28;19995;-64
2022/11/17 10:29:57;;;;;;;;;;;13.00;99.90;;;;;;5031939;28;19972;-64
2022/11/17 10:32:25;;;;;;;;;;;12.80;99.90;;;;;;5032090;28;20023;-64
2022/11/17 10:34:54;;;;;;;;;;;12.80;99.90;;;;;;5031780;28;19975;-64
2022/11/17 10:37:23;;;;;;;;;;;12.70;99.90;;;;;;5036900;28;20353;-65
2022/11/17 10:40:02;;;;;;;;;;;12.70;99.90;;;;;;5048980;28;19964;-65
2022/11/17 10:42:31;;;;;;;;;;;12.70;99.90;;;;;;5049215;28;20026;-65
2022/11/17 10:45:00;;;;;;;;;;;12.60;99.90;;;;;;5031928;28;20354;-65
2022/11/17 10:47:29;;;;;;;;;;;12.70;99.90;;;;;;5032052;28;20396;-64
2022/11/17 10:50:12;;;;;;;;;;;12.70;99.90;;;;;;5031176;28;19975;-65
2022/11/17 10:52:40;;;;;;;;;;;12.70;99.90;;;;;;5031675;28;19968;-65
2022/11/17 10:55:16;;;;;;;;;;;12.80;99.90;;;;;;5031614;28;19969;-64
2022/11/17 10:57:46;;;;;;;;;;;12.70;99.90;;;;;;5031984;28;19968;-64
2022/11/17 11:00:22;;;;;;;;;;;12.80;99.90;;;;;;5031311;28;19968;-64
2022/11/17 11:03:02;;;;;;;;;;;12.80;99.90;;;;;;5031530;28;19969;-65
2022/11/17 11:05:29;;;;;;;;;;;12.80;99.90;;;;;;5031594;28;20353;-65
2022/11/17 11:08:08;;;;;;;;;;;12.80;99.90;;;;;;5033400;28;20513;-65
2022/11/17 11:10:36;;;;;;;;;;;12.70;99.90;;;;;;5055569;28;19974;-65
2022/11/17 11:13:09;;;;;;;;;;;12.70;99.90;;;;;;5031581;28;19973;-64
2022/11/17 11:15:36;;;;;;;;;;;12.50;99.90;;;;;;5031776;28;20002;-65
2022/11/17 11:18:11;;;;;;;;;;;12.50;99.90;;;;;;5033195;28;20000;-65
2022/11/17 11:20:43;;;;;;;;;;;12.50;99.90;;;;;;5031058;28;20244;-65
2022/11/17 11:23:16;;;;;;;;;;;12.30;99.90;;;;;;5031555;28;20325;-65
2022/11/17 11:25:48;;;;;;;;;;;12.20;99.90;;;;;;5031528;28;19968;-65
2022/11/17 11:28:28;;;;;;;;;;;12.20;99.90;;;;;;5031752;28;19976;-65
2022/11/17 11:30:59;;;;;;;;;;;12.00;99.90;;;;;;5030811;28;20027;-65
2022/11/17 11:33:33;;;;;;;;;;;12.00;99.90;;;;;;5031723;28;19979;-65
2022/11/17 11:36:06;;;;;;;;;;;11.90;99.90;;;;;;5031191;28;19968;-64
2022/11/17 11:38:39;;;;;;;;;;;11.90;99.90;;;;;;5037674;28;19968;-65
2022/11/17 11:41:16;;;;;;;;;;;12.00;99.90;;;;;;5051291;28;19964;-65
2022/11/17 11:43:49;;;;;;;;;;;12.00;99.90;;;;;;5031535;28;19969;-65
2022/11/17 11:46:17;;;;;;;;;;;12.00;99.90;;;;;;5031306;28;20517;-65
2022/11/17 11:48:46;;;;;;;;;;;12.00;99.90;;;;;;5030870;28;19976;-65
2022/11/17 11:51:16;;;;;;;;;;;12.10;99.90;;;;;;5030692;28;20054;-64
2022/11/17 11:53:47;;;;;;;;;;;12.20;99.90;;;;;;5031316;28;19972;-65
2022/11/17 11:56:17;;;;;;;;;;;12.20;99.90;;;;;;5031188;28;19969;-65
2022/11/17 11:58:49;;;;;;;;;;;12.30;99.90;;;;;;5031172;28;19968;-65
2022/11/17 12:01:18;;;;;;;;;;;12.30;99.90;;;;;;5030990;28;19972;-64
2022/11/17 12:03:49;;;;;;;;;;;12.30;99.90;;;;;;5033819;28;19972;-65
2022/11/17 12:09:13;;;;;;;;;;;12.50;99.90;;;;;;5045574;28;20437;-65
2022/11/17 12:12:00;;;;;;;;;;;12.60;99.90;;;;;;5046194;28;19968;-64
2022/11/17 12:14:30;;;;;;;;;;;12.60;99.90;;;;;;5054643;28;19968;-64
2022/11/17 12:17:03;;;;;;;;;;;12.60;99.90;;;;;;5054429;28;19968;-65
2022/11/17 12:19:47;;;;;;;;;;;12.70;99.90;;;;;;5054284;28;19972;-65
2022/11/17 12:22:19;;;;;;;;;;;12.80;99.90;;;;;;5054596;28;19972;-64
2022/11/17 12:24:47;;;;;;;;;;;12.90;99.90;;;;;;5054331;28;19975;-65
2022/11/17 12:27:48;;;;;;;;;;;12.90;99.90;;;;;;5054345;28;19968;-65
2022/11/17 12:30:31;;;;;;;;;;;12.90;99.90;;;;;;4992010;28;20359;-65
2022/11/17 12:33:00;;;;;;;;;;;12.90;99.90;;;;;;4977394;28;19977;-65
2022/11/17 12:35:29;;;;;;;;;;;12.80;99.90;;;;;;5027191;28;20398;-65
2022/11/17 12:38:15;;;;;;;;;;;12.80;99.90;;;;;;5054001;28;19968;-64
2022/11/17 12:40:44;;;;;;;;;;;12.80;99.90;;;;;;5050283;28;19963;-65
2022/11/17 12:43:19;;;;;;;;;;;12.70;99.90;;;;;;5074358;28;20400;-65
2022/11/17 12:45:54;;;;;;;;;;;12.60;99.90;;;;;;5074194;28;19979;-64
2022/11/17 12:48:24;;;;;;;;;;;12.40;99.90;;;;;;5073779;28;19982;-64
2022/11/17 12:51:04;;;;;;;;;;;12.40;99.90;;;;;;5073369;28;19975;-65
2022/11/17 12:53:41;;;;;;;;;;;12.30;99.90;;;;;;5073807;28;19976;-65
2022/11/17 12:56:20;;;;;;;;;;;12.30;99.90;;;;;;5073825;28;19972;-64
2022/11/17 12:58:53;;;;;;;;;;;12.30;99.90;;;;;;5073946;28;19978;-65
2022/11/17 13:01:25;;;;;;;;;;;12.30;99.90;;;;;;5073265;28;19978;-65
2022/11/17 13:03:55;;;;;;;;;;;12.30;99.90;;;;;;5073464;28;19968;-65
2022/11/17 13:06:23;;;;;;;;;;;12.30;99.90;;;;;;5073639;28;20432;-65
2022/11/17 13:09:07;;;;;;;;;;;12.40;99.90;;;;;;5062826;28;19964;-65
2022/11/17 13:11:35;;;;;;;;;;;12.40;99.90;;;;;;5049343;28;20467;-64
2022/11/17 13:14:06;;;;;;;;;;;12.50;99.90;;;;;;5033104;28;19992;-65
2022/11/17 13:16:34;;;;;;;;;;;12.50;99.90;;;;;;5033496;28;19969;-64
2022/11/17 13:19:04;;;;;;;;;;;12.40;99.90;;;;;;5033651;28;20063;-64
2022/11/17 13:21:32;;;;;;;;;;;12.40;99.90;;;;;;5033203;28;20353;-64
2022/11/17 13:24:00;;;;;;;;;;;12.40;99.90;;;;;;5033118;28;20026;-64
2022/11/17 13:26:30;;;;;;;;;;;12.40;99.90;;;;;;5033456;28;19991;-64
2022/11/17 13:29:02;;;;;;;;;;;12.40;99.90;;;;;;5033482;28;19994;-65
2022/11/17 13:31:30;;;;;;;;;;;12.30;99.90;;;;;;5032663;28;19967;-65
2022/11/17 13:34:04;;;;;;;;;;;12.30;99.90;;;;;;5033217;28;19994;-64
2022/11/17 13:36:33;;;;;;;;;;;12.30;99.90;;;;;;5032961;28;19978;-64
2022/11/17 13:39:02;;;;;;;;;;;12.40;99.90;;;;;;5043158;28;20058;-65
2022/11/17 13:41:33;;;;;;;;;;;12.40;99.90;;;;;;5049957;28;20467;-65
2022/11/17 13:44:01;;;;;;;;;;;12.40;99.90;;;;;;5033003;28;20453;-65
2022/11/17 13:46:29;;;;;;;;;;;12.30;99.90;;;;;;5033078;28;20062;-65
2022/11/17 13:48:56;;;;;;;;;;;12.30;99.90;;;;;;5032906;28;19979;-64
2022/11/17 13:51:27;;;;;;;;;;;12.30;99.90;;;;;;5032471;28;20372;-65
2022/11/17 13:53:58;;;;;;;;;;;12.30;99.90;;;;;;5032636;28;20055;-67
2022/11/17 13:56:29;;;;;;;;;;;12.30;99.90;;;;;;5032798;28;19968;-67
2022/11/17 13:58:58;;;;;;;;;;;12.30;99.90;;;;;;5032592;28;20362;-67
2022/11/17 14:01:27;;;;;;;;;;;12.30;99.90;;;;;;5032016;28;20349;-67
2022/11/17 14:04:10;;;;;;;;;;;12.30;99.90;;;;;;5032602;28;19978;-67
2022/11/17 14:06:53;;;;;;;;;;;12.30;99.90;;;;;;5032961;28;20661;-67
2022/11/17 14:09:23;;;;;;;;;;;12.30;99.90;;;;;;5046480;28;19975;-67
2022/11/17 14:11:51;;;;;;;;;;;12.20;99.90;;;;;;5044498;28;19968;-67
2022/11/17 14:14:23;;;;;;;;;;;12.20;99.90;;;;;;5031657;28;20401;-67
2022/11/17 14:16:52;;;;;;;;;;;12.20;99.90;;;;;;5032492;28;20015;-67
2022/11/17 14:19:29;;;;;;;;;;;12.20;99.90;;;;;;5032360;28;19976;-67
2022/11/17 14:21:58;;;;;;;;;;;12.20;99.90;;;;;;5032132;28;20428;-67
2022/11/17 14:24:27;;;;;;;;;;;12.10;99.90;;;;;;5031928;28;20519;-65
2022/11/17 14:26:55;;;;;;;;;;;12.10;99.90;;;;;;5031618;28;20338;-64
2022/11/17 14:29:22;;;;;;;;;;;12.10;99.90;;;;;;5032189;28;20334;-65
2022/11/17 14:31:50;;;;;;;;;;;12.10;99.90;;;;;;5031518;28;19991;-64
2022/11/17 14:34:18;;;;;;;;;;;12.00;99.90;;;;;;5031922;28;19978;-65
2022/11/17 14:36:46;;;;;;;;;;;11.90;99.90;;;;;;5031791;28;19969;-65
2022/11/17 14:39:15;;;;;;;;;;;11.60;99.90;;;;;;5044198;28;19971;-65
2022/11/17 14:41:45;;;;;;;;;;;11.50;99.90;;;;;;5046700;28;20433;-65
2022/11/17 14:44:13;;;;;;;;;;;11.20;99.90;;;;;;5032020;28;19976;-64
2022/11/17 14:46:41;;;;;;;;;;;11.10;99.90;;;;;;5032054;28;20011;-65
2022/11/17 14:49:09;;;;;;;;;;;10.90;99.90;;;;;;5031935;28;19968;-65
2022/11/17 14:51:37;;;;;;;;;;;10.80;99.90;;;;;;5031267;28;20067;-65
2022/11/17 14:54:05;;;;;;;;;;;10.80;99.90;;;;;;5031135;28;19969;-65
2022/11/17 14:56:33;;;;;;;;;;;10.80;99.90;;;;;;5058801;22;19975;-62
2022/11/17 14:59:02;;;;;;;;;;;10.70;99.90;;;;;;5058804;28;19988;-62
2022/11/17 15:01:32;;;;;;;;;;;10.80;99.90;;;;;;5069970;28;19968;-62
2022/11/17 15:04:01;;;;;;;;;;;10.80;99.90;;;;;;5071673;28;20075;-62
2022/11/17 15:06:49;;;;;;;;;;;10.90;99.90;;;;;;5071653;28;19979;-62